sensor_id;sensor_type;location;lat;lon;timestamp;P1;durP1;ratioP1;P2;durP2;ratioP2
15043;SDS011;7619;48.562;8.910;2024-03-08T00:02:20;22.47;;;13.87;;
15043;SDS011;7619;48.562;8.910;2024-03-08T00:04:48;24.10;;;14.43;;
15043;SDS011;7619;48.562;8.910;2024-03-08T00:07:16;24.13;;;14.07;;
15043;SDS011;7619;48.562;8.910;2024-03-08T00:09:44;20.63;;;12.87;;
15043;SDS011;7619;48.562;8.910;2024-03-08T00:12:12;23.13;;;14.10;;
15043;SDS011;7619;48.562;8.910;2024-03-08T00:14:40;19.50;;;12.50;;
15043;SDS011;7619;48.562;8.910;2024-03-08T00:17:08;27.67;;;12.50;;
15043;SDS011;7619;48.562;8.910;2024-03-08T00:19:36;23.10;;;13.90;;
15043;SDS011;7619;48.562;8.910;2024-03-08T00:22:04;22.67;;;14.20;;
15043;SDS011;7619;48.562;8.910;2024-03-08T00:24:33;22.37;;;12.80;;
15043;SDS011;7619;48.562;8.910;2024-03-08T00:27:01;20.50;;;12.63;;
15043;SDS011;7619;48.562;8.910;2024-03-08T00:29:31;19.80;;;13.13;;
15043;SDS011;7619;48.562;8.910;2024-03-08T00:31:59;24.73;;;13.97;;
15043;SDS011;7619;48.562;8.910;2024-03-08T00:34:27;23.27;;;13.27;;
15043;SDS011;7619;48.562;8.910;2024-03-08T00:36:55;20.90;;;12.93;;
15043;SDS011;7619;48.562;8.910;2024-03-08T00:39:23;21.90;;;12.40;;
15043;SDS011;7619;48.562;8.910;2024-03-08T00:41:52;17.33;;;12.13;;
15043;SDS011;7619;48.562;8.910;2024-03-08T00:44:20;22.10;;;13.60;;
15043;SDS011;7619;48.562;8.910;2024-03-08T00:46:48;18.37;;;12.53;;
15043;SDS011;7619;48.562;8.910;2024-03-08T00:49:16;19.87;;;12.83;;
15043;SDS011;7619;48.562;8.910;2024-03-08T00:51:44;20.63;;;12.90;;
15043;SDS011;7619;48.562;8.910;2024-03-08T00:54:12;21.37;;;13.53;;
15043;SDS011;7619;48.562;8.910;2024-03-08T00:56:40;22.70;;;13.20;;
15043;SDS011;7619;48.562;8.910;2024-03-08T00:59:08;19.13;;;11.97;;
15043;SDS011;7619;48.562;8.910;2024-03-08T01:01:36;18.47;;;12.93;;
15043;SDS011;7619;48.562;8.910;2024-03-08T01:04:05;25.87;;;12.87;;
15043;SDS011;7619;48.562;8.910;2024-03-08T01:06:34;18.80;;;12.83;;
15043;SDS011;7619;48.562;8.910;2024-03-08T01:09:02;24.00;;;12.87;;
15043;SDS011;7619;48.562;8.910;2024-03-08T01:11:32;20.13;;;12.23;;
15043;SDS011;7619;48.562;8.910;2024-03-08T01:14:00;25.13;;;12.90;;
15043;SDS011;7619;48.562;8.910;2024-03-08T01:16:28;19.73;;;12.80;;
15043;SDS011;7619;48.562;8.910;2024-03-08T01:18:56;20.03;;;12.83;;
15043;SDS011;7619;48.562;8.910;2024-03-08T01:21:24;25.13;;;13.77;;
15043;SDS011;7619;48.562;8.910;2024-03-08T01:23:52;20.17;;;12.53;;
15043;SDS011;7619;48.562;8.910;2024-03-08T01:26:20;23.77;;;13.70;;
15043;SDS011;7619;48.562;8.910;2024-03-08T01:28:49;21.97;;;13.13;;
15043;SDS011;7619;48.562;8.910;2024-03-08T01:31:17;19.07;;;11.97;;
15043;SDS011;7619;48.562;8.910;2024-03-08T01:33:45;21.13;;;13.57;;
15043;SDS011;7619;48.562;8.910;2024-03-08T01:36:13;22.27;;;13.37;;
15043;SDS011;7619;48.562;8.910;2024-03-08T01:38:42;20.83;;;13.67;;
15043;SDS011;7619;48.562;8.910;2024-03-08T01:41:10;20.67;;;12.20;;
15043;SDS011;7619;48.562;8.910;2024-03-08T01:43:40;23.17;;;14.23;;
15043;SDS011;7619;48.562;8.910;2024-03-08T01:46:08;20.97;;;13.57;;
15043;SDS011;7619;48.562;8.910;2024-03-08T01:48:37;20.73;;;12.63;;
15043;SDS011;7619;48.562;8.910;2024-03-08T01:51:05;24.37;;;14.20;;
15043;SDS011;7619;48.562;8.910;2024-03-08T01:53:33;23.27;;;14.47;;
15043;SDS011;7619;48.562;8.910;2024-03-08T01:56:02;21.13;;;12.87;;
15043;SDS011;7619;48.562;8.910;2024-03-08T01:58:30;20.63;;;13.23;;
15043;SDS011;7619;48.562;8.910;2024-03-08T02:00:59;17.30;;;11.90;;
15043;SDS011;7619;48.562;8.910;2024-03-08T02:03:29;21.80;;;13.07;;
15043;SDS011;7619;48.562;8.910;2024-03-08T02:05:58;24.50;;;13.87;;
15043;SDS011;7619;48.562;8.910;2024-03-08T02:08:26;20.20;;;13.23;;
15043;SDS011;7619;48.562;8.910;2024-03-08T02:10:54;26.57;;;13.47;;
15043;SDS011;7619;48.562;8.910;2024-03-08T02:13:22;19.87;;;12.53;;
15043;SDS011;7619;48.562;8.910;2024-03-08T02:15:50;19.80;;;11.60;;
15043;SDS011;7619;48.562;8.910;2024-03-08T02:18:19;18.30;;;12.17;;
15043;SDS011;7619;48.562;8.910;2024-03-08T02:20:47;19.90;;;12.53;;
15043;SDS011;7619;48.562;8.910;2024-03-08T02:23:15;18.60;;;11.73;;
15043;SDS011;7619;48.562;8.910;2024-03-08T02:25:43;19.23;;;12.53;;
15043;SDS011;7619;48.562;8.910;2024-03-08T02:28:12;22.10;;;13.53;;
15043;SDS011;7619;48.562;8.910;2024-03-08T02:30:40;20.20;;;13.03;;
15043;SDS011;7619;48.562;8.910;2024-03-08T02:33:08;19.67;;;12.60;;
15043;SDS011;7619;48.562;8.910;2024-03-08T02:35:36;18.07;;;11.83;;
15043;SDS011;7619;48.562;8.910;2024-03-08T02:38:04;21.30;;;12.93;;
15043;SDS011;7619;48.562;8.910;2024-03-08T02:40:32;19.67;;;12.23;;
15043;SDS011;7619;48.562;8.910;2024-03-08T02:43:00;19.70;;;12.13;;
15043;SDS011;7619;48.562;8.910;2024-03-08T02:45:28;21.90;;;13.70;;
15043;SDS011;7619;48.562;8.910;2024-03-08T02:47:56;22.33;;;13.37;;
15043;SDS011;7619;48.562;8.910;2024-03-08T02:50:24;22.70;;;14.03;;
15043;SDS011;7619;48.562;8.910;2024-03-08T02:52:52;20.73;;;13.40;;
15043;SDS011;7619;48.562;8.910;2024-03-08T02:55:20;20.30;;;13.10;;
15043;SDS011;7619;48.562;8.910;2024-03-08T02:57:48;26.73;;;12.80;;
15043;SDS011;7619;48.562;8.910;2024-03-08T03:00:17;20.23;;;13.37;;
15043;SDS011;7619;48.562;8.910;2024-03-08T03:02:46;23.33;;;13.00;;
15043;SDS011;7619;48.562;8.910;2024-03-08T03:05:14;23.43;;;14.10;;
15043;SDS011;7619;48.562;8.910;2024-03-08T03:07:42;21.57;;;12.47;;
15043;SDS011;7619;48.562;8.910;2024-03-08T03:10:10;24.60;;;14.47;;
15043;SDS011;7619;48.562;8.910;2024-03-08T03:12:39;19.50;;;11.90;;
15043;SDS011;7619;48.562;8.910;2024-03-08T03:15:07;21.00;;;13.07;;
15043;SDS011;7619;48.562;8.910;2024-03-08T03:17:35;24.07;;;14.47;;
15043;SDS011;7619;48.562;8.910;2024-03-08T03:20:05;21.93;;;13.87;;
15043;SDS011;7619;48.562;8.910;2024-03-08T03:22:36;20.47;;;12.93;;
15043;SDS011;7619;48.562;8.910;2024-03-08T03:25:06;23.37;;;14.03;;
15043;SDS011;7619;48.562;8.910;2024-03-08T03:27:34;21.80;;;13.37;;
15043;SDS011;7619;48.562;8.910;2024-03-08T03:30:03;22.60;;;13.57;;
15043;SDS011;7619;48.562;8.910;2024-03-08T03:32:35;20.60;;;13.50;;
15043;SDS011;7619;48.562;8.910;2024-03-08T03:35:06;20.67;;;13.20;;
15043;SDS011;7619;48.562;8.910;2024-03-08T03:37:34;20.63;;;12.43;;
15043;SDS011;7619;48.562;8.910;2024-03-08T03:40:05;21.33;;;12.43;;
15043;SDS011;7619;48.562;8.910;2024-03-08T03:42:35;23.53;;;12.67;;
15043;SDS011;7619;48.562;8.910;2024-03-08T03:45:05;21.67;;;13.40;;
15043;SDS011;7619;48.562;8.910;2024-03-08T03:47:33;21.23;;;12.63;;
15043;SDS011;7619;48.562;8.910;2024-03-08T03:50:01;19.43;;;11.70;;
15043;SDS011;7619;48.562;8.910;2024-03-08T03:52:29;23.40;;;12.50;;
15043;SDS011;7619;48.562;8.910;2024-03-08T03:54:58;22.93;;;12.73;;
15043;SDS011;7619;48.562;8.910;2024-03-08T03:57:26;17.47;;;10.87;;
15043;SDS011;7619;48.562;8.910;2024-03-08T03:59:54;19.47;;;12.40;;
15043;SDS011;7619;48.562;8.910;2024-03-08T04:02:22;28.07;;;16.03;;
15043;SDS011;7619;48.562;8.910;2024-03-08T04:04:50;26.23;;;14.17;;
15043;SDS011;7619;48.562;8.910;2024-03-08T04:07:18;22.30;;;12.80;;
15043;SDS011;7619;48.562;8.910;2024-03-08T04:09:46;23.10;;;12.93;;
15043;SDS011;7619;48.562;8.910;2024-03-08T04:12:14;25.87;;;14.63;;
15043;SDS011;7619;48.562;8.910;2024-03-08T04:14:42;19.07;;;12.97;;
15043;SDS011;7619;48.562;8.910;2024-03-08T04:17:11;19.37;;;12.23;;
15043;SDS011;7619;48.562;8.910;2024-03-08T04:19:39;24.27;;;14.30;;
15043;SDS011;7619;48.562;8.910;2024-03-08T04:22:07;19.23;;;12.23;;
15043;SDS011;7619;48.562;8.910;2024-03-08T04:24:35;21.33;;;13.17;;
15043;SDS011;7619;48.562;8.910;2024-03-08T04:27:03;18.27;;;12.47;;
15043;SDS011;7619;48.562;8.910;2024-03-08T04:29:31;27.20;;;14.27;;
15043;SDS011;7619;48.562;8.910;2024-03-08T04:32:01;19.17;;;13.30;;
15043;SDS011;7619;48.562;8.910;2024-03-08T04:34:30;22.40;;;13.87;;
15043;SDS011;7619;48.562;8.910;2024-03-08T04:36:58;24.90;;;14.10;;
15043;SDS011;7619;48.562;8.910;2024-03-08T04:39:26;21.33;;;12.80;;
15043;SDS011;7619;48.562;8.910;2024-03-08T04:41:55;20.43;;;12.97;;
15043;SDS011;7619;48.562;8.910;2024-03-08T04:44:24;20.20;;;13.23;;
15043;SDS011;7619;48.562;8.910;2024-03-08T04:46:52;22.03;;;12.97;;
15043;SDS011;7619;48.562;8.910;2024-03-08T04:49:20;21.13;;;14.20;;
15043;SDS011;7619;48.562;8.910;2024-03-08T04:51:48;24.40;;;16.23;;
15043;SDS011;7619;48.562;8.910;2024-03-08T04:54:16;25.87;;;14.80;;
15043;SDS011;7619;48.562;8.910;2024-03-08T04:56:45;27.13;;;14.90;;
15043;SDS011;7619;48.562;8.910;2024-03-08T04:59:13;25.27;;;15.50;;
15043;SDS011;7619;48.562;8.910;2024-03-08T05:01:41;19.67;;;13.37;;
15043;SDS011;7619;48.562;8.910;2024-03-08T05:04:10;25.20;;;14.90;;
15043;SDS011;7619;48.562;8.910;2024-03-08T05:06:38;26.83;;;14.67;;
15043;SDS011;7619;48.562;8.910;2024-03-08T05:09:06;24.50;;;13.70;;
15043;SDS011;7619;48.562;8.910;2024-03-08T05:11:36;23.17;;;12.87;;
15043;SDS011;7619;48.562;8.910;2024-03-08T05:14:05;17.03;;;12.23;;
15043;SDS011;7619;48.562;8.910;2024-03-08T05:16:33;26.03;;;14.80;;
15043;SDS011;7619;48.562;8.910;2024-03-08T05:19:01;30.40;;;14.77;;
15043;SDS011;7619;48.562;8.910;2024-03-08T05:21:29;26.53;;;14.60;;
15043;SDS011;7619;48.562;8.910;2024-03-08T05:23:58;26.03;;;14.10;;
15043;SDS011;7619;48.562;8.910;2024-03-08T05:26:26;29.90;;;16.00;;
15043;SDS011;7619;48.562;8.910;2024-03-08T05:28:54;23.93;;;15.47;;
15043;SDS011;7619;48.562;8.910;2024-03-08T05:31:23;24.07;;;15.53;;
15043;SDS011;7619;48.562;8.910;2024-03-08T05:33:51;24.43;;;16.27;;
15043;SDS011;7619;48.562;8.910;2024-03-08T05:36:20;27.07;;;16.03;;
15043;SDS011;7619;48.562;8.910;2024-03-08T05:38:48;24.07;;;14.50;;
15043;SDS011;7619;48.562;8.910;2024-03-08T05:41:17;30.70;;;15.37;;
15043;SDS011;7619;48.562;8.910;2024-03-08T05:43:45;24.90;;;15.40;;
15043;SDS011;7619;48.562;8.910;2024-03-08T05:46:15;24.73;;;15.20;;
15043;SDS011;7619;48.562;8.910;2024-03-08T05:48:45;25.97;;;15.60;;
15043;SDS011;7619;48.562;8.910;2024-03-08T05:51:13;26.93;;;15.00;;
15043;SDS011;7619;48.562;8.910;2024-03-08T05:53:41;22.07;;;14.20;;
15043;SDS011;7619;48.562;8.910;2024-03-08T05:56:10;23.97;;;15.40;;
15043;SDS011;7619;48.562;8.910;2024-03-08T05:58:38;27.50;;;15.67;;
15043;SDS011;7619;48.562;8.910;2024-03-08T06:01:06;33.80;;;18.97;;
15043;SDS011;7619;48.562;8.910;2024-03-08T06:03:34;33.27;;;19.20;;
15043;SDS011;7619;48.562;8.910;2024-03-08T06:06:03;33.07;;;20.30;;
15043;SDS011;7619;48.562;8.910;2024-03-08T06:08:31;28.97;;;18.30;;
15043;SDS011;7619;48.562;8.910;2024-03-08T06:10:59;28.73;;;17.73;;
15043;SDS011;7619;48.562;8.910;2024-03-08T06:16:05;26.93;;;15.73;;
15043;SDS011;7619;48.562;8.910;2024-03-08T06:18:35;26.30;;;16.23;;
15043;SDS011;7619;48.562;8.910;2024-03-08T06:21:04;22.33;;;14.60;;
15043;SDS011;7619;48.562;8.910;2024-03-08T06:23:32;28.07;;;17.77;;
15043;SDS011;7619;48.562;8.910;2024-03-08T06:26:00;26.60;;;17.00;;
15043;SDS011;7619;48.562;8.910;2024-03-08T06:28:28;23.03;;;15.07;;
15043;SDS011;7619;48.562;8.910;2024-03-08T06:30:56;24.03;;;16.10;;
15043;SDS011;7619;48.562;8.910;2024-03-08T06:33:24;25.13;;;15.23;;
15043;SDS011;7619;48.562;8.910;2024-03-08T06:35:53;26.30;;;15.30;;
15043;SDS011;7619;48.562;8.910;2024-03-08T06:38:23;22.97;;;15.40;;
15043;SDS011;7619;48.562;8.910;2024-03-08T06:40:51;29.23;;;18.43;;
15043;SDS011;7619;48.562;8.910;2024-03-08T06:43:21;24.87;;;16.53;;
15043;SDS011;7619;48.562;8.910;2024-03-08T06:45:51;27.80;;;16.63;;
15043;SDS011;7619;48.562;8.910;2024-03-08T06:48:19;32.83;;;18.17;;
15043;SDS011;7619;48.562;8.910;2024-03-08T06:50:47;25.37;;;15.43;;
15043;SDS011;7619;48.562;8.910;2024-03-08T06:53:15;23.63;;;15.10;;
15043;SDS011;7619;48.562;8.910;2024-03-08T06:55:45;23.93;;;14.23;;
15043;SDS011;7619;48.562;8.910;2024-03-08T06:58:13;26.47;;;14.30;;
15043;SDS011;7619;48.562;8.910;2024-03-08T07:00:43;27.63;;;16.57;;
15043;SDS011;7619;48.562;8.910;2024-03-08T07:03:11;24.33;;;14.83;;
15043;SDS011;7619;48.562;8.910;2024-03-08T07:05:41;23.60;;;15.37;;
15043;SDS011;7619;48.562;8.910;2024-03-08T07:08:09;24.63;;;14.63;;
15043;SDS011;7619;48.562;8.910;2024-03-08T07:10:37;23.30;;;16.23;;
15043;SDS011;7619;48.562;8.910;2024-03-08T07:13:07;25.23;;;16.13;;
15043;SDS011;7619;48.562;8.910;2024-03-08T07:15:35;26.93;;;16.97;;
15043;SDS011;7619;48.562;8.910;2024-03-08T07:18:03;26.20;;;17.20;;
15043;SDS011;7619;48.562;8.910;2024-03-08T07:20:32;29.57;;;16.63;;
15043;SDS011;7619;48.562;8.910;2024-03-08T07:23:02;26.87;;;16.83;;
15043;SDS011;7619;48.562;8.910;2024-03-08T07:25:31;27.43;;;16.30;;
15043;SDS011;7619;48.562;8.910;2024-03-08T07:27:59;27.67;;;17.43;;
15043;SDS011;7619;48.562;8.910;2024-03-08T07:30:27;30.70;;;17.17;;
15043;SDS011;7619;48.562;8.910;2024-03-08T07:33:13;29.67;;;16.80;;
15043;SDS011;7619;48.562;8.910;2024-03-08T07:35:41;26.90;;;17.00;;
15043;SDS011;7619;48.562;8.910;2024-03-08T07:38:11;23.70;;;16.80;;
15043;SDS011;7619;48.562;8.910;2024-03-08T07:40:39;24.10;;;16.40;;
15043;SDS011;7619;48.562;8.910;2024-03-08T07:43:09;26.93;;;16.00;;
15043;SDS011;7619;48.562;8.910;2024-03-08T07:45:37;21.33;;;14.63;;
15043;SDS011;7619;48.562;8.910;2024-03-08T07:48:06;22.87;;;14.80;;
15043;SDS011;7619;48.562;8.910;2024-03-08T07:50:36;23.47;;;14.93;;
15043;SDS011;7619;48.562;8.910;2024-03-08T07:53:05;25.90;;;15.03;;
15043;SDS011;7619;48.562;8.910;2024-03-08T07:55:33;27.47;;;15.30;;
15043;SDS011;7619;48.562;8.910;2024-03-08T07:58:02;22.87;;;13.80;;
15043;SDS011;7619;48.562;8.910;2024-03-08T08:00:30;21.17;;;13.47;;
15043;SDS011;7619;48.562;8.910;2024-03-08T08:02:58;21.57;;;14.20;;
15043;SDS011;7619;48.562;8.910;2024-03-08T08:05:28;20.33;;;12.83;;
15043;SDS011;7619;48.562;8.910;2024-03-08T08:07:58;24.90;;;14.63;;
15043;SDS011;7619;48.562;8.910;2024-03-08T08:10:26;20.90;;;14.63;;
15043;SDS011;7619;48.562;8.910;2024-03-08T08:12:55;21.87;;;13.43;;
15043;SDS011;7619;48.562;8.910;2024-03-08T08:15:23;24.73;;;14.37;;
15043;SDS011;7619;48.562;8.910;2024-03-08T08:17:52;19.83;;;13.60;;
15043;SDS011;7619;48.562;8.910;2024-03-08T08:20:20;22.00;;;14.63;;
15043;SDS011;7619;48.562;8.910;2024-03-08T08:22:48;20.70;;;14.13;;
15043;SDS011;7619;48.562;8.910;2024-03-08T08:25:16;23.67;;;13.93;;
15043;SDS011;7619;48.562;8.910;2024-03-08T08:27:47;22.43;;;13.53;;
15043;SDS011;7619;48.562;8.910;2024-03-08T08:30:15;20.10;;;12.63;;
15043;SDS011;7619;48.562;8.910;2024-03-08T08:32:44;24.27;;;13.90;;
15043;SDS011;7619;48.562;8.910;2024-03-08T08:35:14;21.27;;;12.70;;
15043;SDS011;7619;48.562;8.910;2024-03-08T08:37:42;19.93;;;12.80;;
15043;SDS011;7619;48.562;8.910;2024-03-08T08:40:11;20.17;;;12.50;;
15043;SDS011;7619;48.562;8.910;2024-03-08T08:42:43;20.57;;;12.37;;
15043;SDS011;7619;48.562;8.910;2024-03-08T08:45:12;18.27;;;12.63;;
15043;SDS011;7619;48.562;8.910;2024-03-08T08:47:41;20.93;;;12.83;;
15043;SDS011;7619;48.562;8.910;2024-03-08T08:50:09;18.63;;;12.30;;
15043;SDS011;7619;48.562;8.910;2024-03-08T08:52:39;18.83;;;13.00;;
15043;SDS011;7619;48.562;8.910;2024-03-08T08:55:07;21.33;;;12.57;;
15043;SDS011;7619;48.562;8.910;2024-03-08T08:57:37;19.23;;;12.50;;
15043;SDS011;7619;48.562;8.910;2024-03-08T09:00:09;16.60;;;11.97;;
15043;SDS011;7619;48.562;8.910;2024-03-08T09:02:39;18.07;;;11.23;;
15043;SDS011;7619;48.562;8.910;2024-03-08T09:05:08;19.57;;;12.43;;
15043;SDS011;7619;48.562;8.910;2024-03-08T09:07:37;20.03;;;12.40;;
15043;SDS011;7619;48.562;8.910;2024-03-08T09:12:43;19.83;;;11.83;;
15043;SDS011;7619;48.562;8.910;2024-03-08T09:15:11;20.83;;;13.10;;
15043;SDS011;7619;48.562;8.910;2024-03-08T09:17:39;17.73;;;11.57;;
15043;SDS011;7619;48.562;8.910;2024-03-08T09:20:08;20.40;;;12.07;;
15043;SDS011;7619;48.562;8.910;2024-03-08T09:22:37;17.40;;;11.87;;
15043;SDS011;7619;48.562;8.910;2024-03-08T09:25:08;17.70;;;11.17;;
15043;SDS011;7619;48.562;8.910;2024-03-08T09:27:36;19.57;;;12.20;;
15043;SDS011;7619;48.562;8.910;2024-03-08T09:30:07;16.87;;;11.70;;
15043;SDS011;7619;48.562;8.910;2024-03-08T09:32:35;14.93;;;10.17;;
15043;SDS011;7619;48.562;8.910;2024-03-08T09:35:04;13.87;;;10.37;;
15043;SDS011;7619;48.562;8.910;2024-03-08T09:37:34;19.63;;;11.77;;
15043;SDS011;7619;48.562;8.910;2024-03-08T09:40:02;16.30;;;11.17;;
15043;SDS011;7619;48.562;8.910;2024-03-08T09:42:32;16.93;;;10.43;;
15043;SDS011;7619;48.562;8.910;2024-03-08T09:45:02;16.23;;;11.60;;
15043;SDS011;7619;48.562;8.910;2024-03-08T09:47:31;16.23;;;10.33;;
15043;SDS011;7619;48.562;8.910;2024-03-08T09:50:01;16.13;;;10.40;;
15043;SDS011;7619;48.562;8.910;2024-03-08T09:52:29;18.83;;;11.23;;
15043;SDS011;7619;48.562;8.910;2024-03-08T09:54:59;17.57;;;11.37;;
15043;SDS011;7619;48.562;8.910;2024-03-08T09:57:28;15.63;;;10.97;;
15043;SDS011;7619;48.562;8.910;2024-03-08T09:59:56;19.87;;;12.10;;
15043;SDS011;7619;48.562;8.910;2024-03-08T10:02:24;27.13;;;16.77;;
15043;SDS011;7619;48.562;8.910;2024-03-08T10:04:53;23.27;;;13.87;;
15043;SDS011;7619;48.562;8.910;2024-03-08T10:07:21;34.90;;;21.53;;
15043;SDS011;7619;48.562;8.910;2024-03-08T10:09:49;21.00;;;13.77;;
15043;SDS011;7619;48.562;8.910;2024-03-08T10:12:18;17.10;;;11.30;;
15043;SDS011;7619;48.562;8.910;2024-03-08T10:14:47;21.63;;;14.53;;
15043;SDS011;7619;48.562;8.910;2024-03-08T10:17:15;15.27;;;10.37;;
15043;SDS011;7619;48.562;8.910;2024-03-08T10:19:50;13.50;;;9.57;;
15043;SDS011;7619;48.562;8.910;2024-03-08T10:22:19;15.90;;;9.73;;
15043;SDS011;7619;48.562;8.910;2024-03-08T10:24:47;18.23;;;11.37;;
15043;SDS011;7619;48.562;8.910;2024-03-08T10:27:16;18.97;;;12.60;;
15043;SDS011;7619;48.562;8.910;2024-03-08T10:29:46;17.83;;;12.93;;
15043;SDS011;7619;48.562;8.910;2024-03-08T10:32:14;21.53;;;15.83;;
15043;SDS011;7619;48.562;8.910;2024-03-08T10:34:42;15.37;;;11.77;;
15043;SDS011;7619;48.562;8.910;2024-03-08T10:37:15;15.67;;;10.83;;
15043;SDS011;7619;48.562;8.910;2024-03-08T10:39:45;20.77;;;15.47;;
15043;SDS011;7619;48.562;8.910;2024-03-08T10:42:16;15.87;;;11.47;;
15043;SDS011;7619;48.562;8.910;2024-03-08T10:44:49;12.60;;;8.30;;
15043;SDS011;7619;48.562;8.910;2024-03-08T10:47:20;14.10;;;9.87;;
15043;SDS011;7619;48.562;8.910;2024-03-08T10:49:51;13.57;;;9.47;;
15043;SDS011;7619;48.562;8.910;2024-03-08T10:52:20;15.10;;;9.23;;
15043;SDS011;7619;48.562;8.910;2024-03-08T10:54:49;12.13;;;9.00;;
15043;SDS011;7619;48.562;8.910;2024-03-08T10:57:19;16.37;;;10.97;;
15043;SDS011;7619;48.562;8.910;2024-03-08T10:59:47;16.27;;;10.30;;
15043;SDS011;7619;48.562;8.910;2024-03-08T11:02:16;14.13;;;9.50;;
15043;SDS011;7619;48.562;8.910;2024-03-08T11:04:48;16.50;;;10.30;;
15043;SDS011;7619;48.562;8.910;2024-03-08T11:07:17;14.90;;;10.00;;
15043;SDS011;7619;48.562;8.910;2024-03-08T11:09:47;14.33;;;10.03;;
15043;SDS011;7619;48.562;8.910;2024-03-08T11:12:19;11.97;;;8.90;;
15043;SDS011;7619;48.562;8.910;2024-03-08T11:14:48;17.67;;;10.50;;
15043;SDS011;7619;48.562;8.910;2024-03-08T11:17:16;12.33;;;8.73;;
15043;SDS011;7619;48.562;8.910;2024-03-08T11:19:46;13.80;;;8.70;;
15043;SDS011;7619;48.562;8.910;2024-03-08T11:22:22;14.83;;;9.60;;
15043;SDS011;7619;48.562;8.910;2024-03-08T11:24:51;12.30;;;8.83;;
15043;SDS011;7619;48.562;8.910;2024-03-08T11:27:19;13.07;;;8.90;;
15043;SDS011;7619;48.562;8.910;2024-03-08T11:30:00;12.30;;;8.67;;
15043;SDS011;7619;48.562;8.910;2024-03-08T11:32:32;12.13;;;8.83;;
15043;SDS011;7619;48.562;8.910;2024-03-08T11:35:00;10.70;;;8.37;;
15043;SDS011;7619;48.562;8.910;2024-03-08T11:37:33;10.00;;;7.93;;
15043;SDS011;7619;48.562;8.910;2024-03-08T11:40:02;13.70;;;9.13;;
15043;SDS011;7619;48.562;8.910;2024-03-08T11:42:31;21.80;;;11.53;;
15043;SDS011;7619;48.562;8.910;2024-03-08T11:44:59;10.93;;;8.13;;
15043;SDS011;7619;48.562;8.910;2024-03-08T11:47:27;15.93;;;9.73;;
15043;SDS011;7619;48.562;8.910;2024-03-08T11:49:57;13.73;;;8.77;;
15043;SDS011;7619;48.562;8.910;2024-03-08T11:52:26;14.60;;;10.17;;
15043;SDS011;7619;48.562;8.910;2024-03-08T11:54:54;14.83;;;9.43;;
15043;SDS011;7619;48.562;8.910;2024-03-08T11:57:23;12.23;;;8.27;;
15043;SDS011;7619;48.562;8.910;2024-03-08T11:59:52;11.47;;;8.00;;
15043;SDS011;7619;48.562;8.910;2024-03-08T12:02:20;12.27;;;8.73;;
15043;SDS011;7619;48.562;8.910;2024-03-08T12:04:50;9.43;;;7.63;;
15043;SDS011;7619;48.562;8.910;2024-03-08T12:07:18;13.33;;;8.63;;
15043;SDS011;7619;48.562;8.910;2024-03-08T12:10:03;13.77;;;8.83;;
15043;SDS011;7619;48.562;8.910;2024-03-08T12:15:01;11.07;;;7.67;;
15043;SDS011;7619;48.562;8.910;2024-03-08T12:17:31;12.17;;;7.83;;
15043;SDS011;7619;48.562;8.910;2024-03-08T12:20:11;13.50;;;8.50;;
15043;SDS011;7619;48.562;8.910;2024-03-08T12:22:41;13.47;;;8.57;;
15043;SDS011;7619;48.562;8.910;2024-03-08T12:25:09;13.63;;;9.23;;
15043;SDS011;7619;48.562;8.910;2024-03-08T12:27:38;18.53;;;11.47;;
15043;SDS011;7619;48.562;8.910;2024-03-08T12:30:20;14.30;;;9.37;;
15043;SDS011;7619;48.562;8.910;2024-03-08T12:32:54;19.03;;;10.57;;
15043;SDS011;7619;48.562;8.910;2024-03-08T12:35:23;12.20;;;8.40;;
15043;SDS011;7619;48.562;8.910;2024-03-08T12:37:53;12.13;;;8.23;;
15043;SDS011;7619;48.562;8.910;2024-03-08T12:40:26;13.53;;;9.90;;
15043;SDS011;7619;48.562;8.910;2024-03-08T12:42:55;14.87;;;9.77;;
15043;SDS011;7619;48.562;8.910;2024-03-08T12:45:23;11.90;;;8.47;;
15043;SDS011;7619;48.562;8.910;2024-03-08T12:47:52;11.00;;;8.00;;
15043;SDS011;7619;48.562;8.910;2024-03-08T12:50:21;14.20;;;9.13;;
15043;SDS011;7619;48.562;8.910;2024-03-08T12:52:49;13.13;;;8.07;;
15043;SDS011;7619;48.562;8.910;2024-03-08T12:55:17;11.27;;;8.80;;
15043;SDS011;7619;48.562;8.910;2024-03-08T12:57:46;12.17;;;8.70;;
15043;SDS011;7619;48.562;8.910;2024-03-08T13:00:16;11.27;;;8.10;;
15043;SDS011;7619;48.562;8.910;2024-03-08T13:02:46;12.20;;;8.87;;
15043;SDS011;7619;48.562;8.910;2024-03-08T13:05:14;10.90;;;7.83;;
15043;SDS011;7619;48.562;8.910;2024-03-08T13:07:42;11.23;;;8.23;;
15043;SDS011;7619;48.562;8.910;2024-03-08T13:10:12;12.47;;;8.27;;
15043;SDS011;7619;48.562;8.910;2024-03-08T13:12:41;15.13;;;8.03;;
15043;SDS011;7619;48.562;8.910;2024-03-08T13:15:10;15.37;;;8.50;;
15043;SDS011;7619;48.562;8.910;2024-03-08T13:17:40;10.83;;;8.43;;
15043;SDS011;7619;48.562;8.910;2024-03-08T13:20:09;11.40;;;7.87;;
15043;SDS011;7619;48.562;8.910;2024-03-08T13:22:39;12.27;;;8.63;;
15043;SDS011;7619;48.562;8.910;2024-03-08T13:25:08;12.03;;;8.30;;
15043;SDS011;7619;48.562;8.910;2024-03-08T13:27:39;11.70;;;7.57;;
15043;SDS011;7619;48.562;8.910;2024-03-08T13:30:08;13.20;;;8.77;;
15043;SDS011;7619;48.562;8.910;2024-03-08T13:32:38;12.37;;;8.70;;
15043;SDS011;7619;48.562;8.910;2024-03-08T13:35:07;12.93;;;8.40;;
15043;SDS011;7619;48.562;8.910;2024-03-08T13:37:37;12.27;;;8.20;;
15043;SDS011;7619;48.562;8.910;2024-03-08T13:40:06;12.17;;;8.40;;
15043;SDS011;7619;48.562;8.910;2024-03-08T13:42:36;15.50;;;9.57;;
15043;SDS011;7619;48.562;8.910;2024-03-08T13:45:06;12.17;;;7.90;;
15043;SDS011;7619;48.562;8.910;2024-03-08T13:47:37;11.20;;;8.10;;
15043;SDS011;7619;48.562;8.910;2024-03-08T13:50:08;12.90;;;9.07;;
15043;SDS011;7619;48.562;8.910;2024-03-08T13:52:38;10.93;;;7.60;;
15043;SDS011;7619;48.562;8.910;2024-03-08T13:55:09;12.17;;;9.50;;
15043;SDS011;7619;48.562;8.910;2024-03-08T13:57:38;11.73;;;7.37;;
15043;SDS011;7619;48.562;8.910;2024-03-08T14:00:07;14.20;;;8.63;;
15043;SDS011;7619;48.562;8.910;2024-03-08T14:02:36;10.73;;;7.97;;
15043;SDS011;7619;48.562;8.910;2024-03-08T14:05:04;13.20;;;7.97;;
15043;SDS011;7619;48.562;8.910;2024-03-08T14:07:34;10.30;;;7.60;;
15043;SDS011;7619;48.562;8.910;2024-03-08T14:10:02;10.47;;;7.93;;
15043;SDS011;7619;48.562;8.910;2024-03-08T14:12:31;12.37;;;8.80;;
15043;SDS011;7619;48.562;8.910;2024-03-08T14:14:59;11.07;;;8.13;;
15043;SDS011;7619;48.562;8.910;2024-03-08T14:17:27;11.97;;;8.30;;
15043;SDS011;7619;48.562;8.910;2024-03-08T14:19:57;11.77;;;8.53;;
15043;SDS011;7619;48.562;8.910;2024-03-08T14:22:26;12.60;;;8.77;;
15043;SDS011;7619;48.562;8.910;2024-03-08T14:24:54;10.50;;;7.83;;
15043;SDS011;7619;48.562;8.910;2024-03-08T14:27:22;12.43;;;8.00;;
15043;SDS011;7619;48.562;8.910;2024-03-08T14:29:50;9.03;;;7.07;;
15043;SDS011;7619;48.562;8.910;2024-03-08T14:32:18;11.50;;;7.40;;
15043;SDS011;7619;48.562;8.910;2024-03-08T14:34:48;14.17;;;9.27;;
15043;SDS011;7619;48.562;8.910;2024-03-08T14:37:16;12.00;;;8.20;;
15043;SDS011;7619;48.562;8.910;2024-03-08T14:39:46;9.60;;;7.57;;
15043;SDS011;7619;48.562;8.910;2024-03-08T14:42:14;10.93;;;6.57;;
15043;SDS011;7619;48.562;8.910;2024-03-08T14:44:42;11.43;;;7.20;;
15043;SDS011;7619;48.562;8.910;2024-03-08T14:47:12;9.93;;;7.83;;
15043;SDS011;7619;48.562;8.910;2024-03-08T14:49:40;9.13;;;7.47;;
15043;SDS011;7619;48.562;8.910;2024-03-08T14:52:09;14.03;;;7.83;;
15043;SDS011;7619;48.562;8.910;2024-03-08T14:54:39;10.67;;;7.90;;
15043;SDS011;7619;48.562;8.910;2024-03-08T14:57:08;9.50;;;7.77;;